Time,TemperatureF,DewpointF,PressureIn,WindDirection,WindDirectionDegrees,WindSpeedMPH,WindSpeedGustMPH,Humidity,HourlyPrecipIn,Conditions,Clouds,dailyrainin,SolarRadiationWatts/m^2,SoftwareType,DateUTC
2013-04-22 00:00:00,55.5,49.8,29.97,NNE,32,2.0,3.0,81,0.00,,,0.00,0,Wunderground v.1.15,2013-04-21 22:00:00,
2013-04-22 00:05:00,55.5,49.8,29.97,NNE,32,2.0,3.0,81,0.00,,,0.00,0,Wunderground v.1.15,2013-04-21 22:05:00,
2013-04-22 00:11:00,55.5,49.8,29.97,NNE,32,6.0,6.0,81,0.00,,,0.00,0,Wunderground v.1.15,2013-04-21 22:11:00,
2013-04-22 00:16:00,55.5,50.1,29.97,NNE,24,2.0,6.0,82,0.00,,,0.00,0,Wunderground v.1.15,2013-04-21 22:16:00,
2013-04-22 00:22:00,55.8,50.1,29.97,NNE,24,3.0,4.0,81,0.00,,,0.00,0,Wunderground v.1.15,2013-04-21 22:22:00,
2013-04-22 00:27:00,55.7,50.0,29.97,NNE,24,2.0,5.0,81,0.00,,,0.00,0,Wunderground v.1.15,2013-04-21 22:27:00,
2013-04-22 00:33:00,55.4,49.7,29.96,NNE,24,4.0,4.0,81,0.00,,,0.00,0,Wunderground v.1.15,2013-04-21 22:33:00,
2013-04-22 00:39:00,55.4,49.7,29.96,NNE,24,3.0,4.0,81,0.00,,,0.00,0,Wunderground v.1.15,2013-04-21 22:39:00,
2013-04-22 00:45:00,55.4,50.0,29.96,NNE,24,2.0,3.0,82,0.00,,,0.00,0,Wunderground v.1.15,2013-04-21 22:45:00,
2013-04-22 00:50:00,55.4,50.0,29.96,NNE,24,3.0,3.0,82,0.00,,,0.00,0,Wunderground v.1.15,2013-04-21 22:50:00,
2013-04-22 00:56:00,55.5,50.1,29.96,North,10,2.0,4.0,82,0.00,,,0.00,0,Wunderground v.1.15,2013-04-21 22:56:00,
2013-04-22 01:01:00,55.7,50.0,29.96,North,10,2.0,3.0,81,0.00,,,0.00,0,Wunderground v.1.15,2013-04-21 23:01:00,
2013-04-22 01:06:00,55.5,49.8,29.96,North,10,3.0,4.0,81,0.00,,,0.00,0,Wunderground v.1.15,2013-04-21 23:06:00,
2013-04-22 01:12:00,55.5,49.8,29.96,North,10,5.0,5.0,81,0.00,,,0.00,0,Wunderground v.1.15,2013-04-21 23:12:00,
2013-04-22 01:18:00,55.4,49.7,29.96,North,10,4.0,5.0,81,0.00,,,0.00,0,Wunderground v.1.15,2013-04-21 23:18:00,
2013-04-22 01:23:00,55.2,49.5,29.96,North,10,4.0,4.0,81,0.00,,,0.00,0,Wunderground v.1.15,2013-04-21 23:23:00,
2013-04-22 01:29:00,55.2,49.5,29.96,North,10,3.0,6.0,81,0.00,,,0.00,0,Wunderground v.1.15,2013-04-21 23:29:00,
2013-04-22 01:35:00,55.2,49.8,29.96,North,10,5.0,5.0,82,0.00,,,0.00,0,Wunderground v.1.15,2013-04-21 23:35:00,
2013-04-22 01:41:00,55.2,49.8,29.96,North,10,5.0,5.0,82,0.00,,,0.00,0,Wunderground v.1.15,2013-04-21 23:41:00,
2013-04-22 01:47:00,55.2,49.8,29.96,North,10,4.0,5.0,82,0.00,,,0.00,0,Wunderground v.1.15,2013-04-21 23:47:00,
2013-04-22 01:53:00,55.4,50.0,29.96,North,10,3.0,5.0,82,0.00,,,0.00,0,Wunderground v.1.15,2013-04-21 23:53:00,
2013-04-22 01:59:00,55.4,49.7,29.96,North,10,4.0,5.0,81,0.00,,,0.00,0,Wunderground v.1.15,2013-04-21 23:59:00,
2013-04-22 02:04:00,55.4,50.0,29.96,North,10,2.0,5.0,82,0.00,,,0.00,0,Wunderground v.1.15,2013-04-22 00:04:00,
2013-04-22 02:09:00,55.5,50.1,29.96,North,10,5.0,5.0,82,0.00,,,0.00,0,Wunderground v.1.15,2013-04-22 00:09:00,
2013-04-22 02:14:00,55.5,49.8,29.96,North,8,3.0,6.0,81,0.00,,,0.00,0,Wunderground v.1.15,2013-04-22 00:14:00,
2013-04-22 02:19:00,55.5,49.8,29.96,North,8,1.0,6.0,81,0.00,,,0.00,0,Wunderground v.1.15,2013-04-22 00:19:00,
2013-04-22 02:24:00,55.5,49.8,29.96,North,8,5.0,5.0,81,0.00,,,0.00,0,Wunderground v.1.15,2013-04-22 00:24:00,
2013-04-22 02:30:00,55.4,49.7,29.95,North,8,5.0,6.0,81,0.00,,,0.00,0,Wunderground v.1.15,2013-04-22 00:30:00,
2013-04-22 02:35:00,55.5,50.1,29.95,North,4,3.0,6.0,82,0.00,,,0.00,0,Wunderground v.1.15,2013-04-22 00:35:00,
2013-04-22 02:40:00,55.7,50.0,29.95,North,4,3.0,4.0,81,0.00,,,0.00,0,Wunderground v.1.15,2013-04-22 00:40:00,
2013-04-22 02:45:00,55.4,49.7,29.95,NNE,14,4.0,7.0,81,0.00,,,0.00,0,Wunderground v.1.15,2013-04-22 00:45:00,
2013-04-22 02:50:00,55.2,49.5,29.95,NNE,14,3.0,4.0,81,0.00,,,0.00,0,Wunderground v.1.15,2013-04-22 00:50:00,
2013-04-22 02:55:00,55.2,49.8,29.95,North,7,5.0,7.0,82,0.00,,,0.00,0,Wunderground v.1.15,2013-04-22 00:55:00,
2013-04-22 03:00:00,55.5,50.1,29.94,North,11,5.0,5.0,82,0.00,,,0.00,0,Wunderground v.1.15,2013-04-22 01:00:00,
2013-04-22 03:05:00,55.5,49.8,29.94,North,11,1.0,7.0,81,0.00,,,0.00,0,Wunderground v.1.15,2013-04-22 01:05:00,
2013-04-22 03:10:00,55.4,49.7,29.94,NNE,13,3.0,4.0,81,0.00,,,0.00,0,Wunderground v.1.15,2013-04-22 01:10:00,
2013-04-22 03:16:00,55.4,49.7,29.94,NNE,13,4.0,6.0,81,0.00,,,0.00,0,Wunderground v.1.15,2013-04-22 01:16:00,
2013-04-22 03:21:00,55.2,49.5,29.94,NNE,16,5.0,6.0,81,0.00,,,0.00,0,Wunderground v.1.15,2013-04-22 01:21:00,
2013-04-22 03:26:00,55.2,49.8,29.94,NNE,14,3.0,7.0,82,0.00,,,0.00,0,Wunderground v.1.15,2013-04-22 01:26:00,
2013-04-22 03:31:00,55.4,50.0,29.94,NNE,14,2.0,5.0,82,0.00,,,0.00,0,Wunderground v.1.15,2013-04-22 01:31:00,
2013-04-22 03:36:00,55.4,50.0,29.94,NNE,14,3.0,5.0,82,0.00,,,0.00,0,Wunderground v.1.15,2013-04-22 01:36:00,
2013-04-22 03:41:00,55.4,49.7,29.94,NNE,14,7.0,7.0,81,0.00,,,0.00,0,Wunderground v.1.15,2013-04-22 01:41:00,
2013-04-22 03:46:00,55.7,50.0,29.93,NNE,18,5.0,7.0,81,0.00,,,0.00,0,Wunderground v.1.15,2013-04-22 01:46:00,
2013-04-22 03:51:00,55.4,49.7,29.93,NNE,18,1.0,5.0,81,0.00,,,0.00,0,Wunderground v.1.15,2013-04-22 01:51:00,
2013-04-22 03:57:00,55.4,49.7,29.93,NNE,18,3.0,6.0,81,0.00,,,0.00,0,Wunderground v.1.15,2013-04-22 01:57:00,
2013-04-22 04:02:00,55.5,49.8,29.93,NNE,18,3.0,5.0,81,0.00,,,0.00,0,Wunderground v.1.15,2013-04-22 02:02:00,
2013-04-22 04:07:00,55.8,50.1,29.93,NNE,18,2.0,5.0,81,0.00,,,0.00,0,Wunderground v.1.15,2013-04-22 02:07:00,
2013-04-22 04:12:00,56.0,50.3,29.93,NNE,18,3.0,3.0,81,0.00,,,0.00,0,Wunderground v.1.15,2013-04-22 02:12:00,
2013-04-22 04:17:00,55.7,49.6,29.93,NNE,14,3.0,5.0,80,0.00,,,0.00,0,Wunderground v.1.15,2013-04-22 02:17:00,
2013-04-22 04:22:00,55.7,49.6,29.93,NNE,14,7.0,8.0,80,0.00,,,0.00,0,Wunderground v.1.15,2013-04-22 02:22:00,
2013-04-22 04:27:00,55.5,49.4,29.93,NNE,20,5.0,8.0,80,0.00,,,0.00,0,Wunderground v.1.15,2013-04-22 02:27:00,
2013-04-22 04:32:00,55.5,49.4,29.92,NNE,17,3.0,6.0,80,0.00,,,0.00,0,Wunderground v.1.15,2013-04-22 02:32:00,
2013-04-22 04:37:00,55.4,49.3,29.92,NNE,17,2.0,6.0,80,0.00,,,0.00,0,Wunderground v.1.15,2013-04-22 02:37:00,
2013-04-22 04:42:00,55.7,49.6,29.92,NNE,17,1.0,4.0,80,0.00,,,0.00,0,Wunderground v.1.15,2013-04-22 02:42:00,
2013-04-22 04:48:00,55.7,49.6,29.92,NNE,17,0.0,4.0,80,0.00,,,0.00,0,Wunderground v.1.15,2013-04-22 02:48:00,
2013-04-22 04:53:00,55.7,49.6,29.92,NNE,17,0.0,1.0,80,0.00,,,0.00,0,Wunderground v.1.15,2013-04-22 02:53:00,
2013-04-22 04:58:00,55.7,49.6,29.92,NNE,17,0.0,1.0,80,0.00,,,0.00,0,Wunderground v.1.15,2013-04-22 02:58:00,
2013-04-22 05:03:00,55.5,49.4,29.92,NNE,17,0.0,0.0,80,0.00,,,0.00,0,Wunderground v.1.15,2013-04-22 03:03:00,
2013-04-22 05:08:00,55.4,49.3,29.92,NNE,17,0.0,0.0,80,0.00,,,0.00,0,Wunderground v.1.15,2013-04-22 03:08:00,
2013-04-22 05:13:00,55.4,49.3,29.92,NNE,17,0.0,0.0,80,0.00,,,0.00,0,Wunderground v.1.15,2013-04-22 03:13:00,
2013-04-22 05:18:00,55.2,49.5,29.92,NNE,17,0.0,0.0,81,0.00,,,0.00,0,Wunderground v.1.15,2013-04-22 03:18:00,
2013-04-22 05:23:00,55.2,49.5,29.92,NNE,17,0.0,0.0,81,0.00,,,0.00,0,Wunderground v.1.15,2013-04-22 03:23:00,
2013-04-22 05:28:00,55.4,49.7,29.92,NNE,17,0.0,0.0,81,0.00,,,0.00,0,Wunderground v.1.15,2013-04-22 03:28:00,
2013-04-22 05:33:00,55.5,49.8,29.92,NNE,17,0.0,0.0,81,0.00,,,0.00,0,Wunderground v.1.15,2013-04-22 03:33:00,
2013-04-22 05:38:00,55.7,50.3,29.92,NNE,17,0.0,0.0,82,0.00,,,0.00,0,Wunderground v.1.15,2013-04-22 03:38:00,
2013-04-22 05:43:00,55.4,49.7,29.92,NNE,17,0.0,0.0,81,0.00,,,0.00,0,Wunderground v.1.15,2013-04-22 03:43:00,
2013-04-22 05:48:00,55.2,49.5,29.92,NNE,17,3.0,4.0,81,0.00,,,0.00,0,Wunderground v.1.15,2013-04-22 03:48:00,
2013-04-22 05:53:00,55.1,49.4,29.92,NNE,17,4.0,6.0,81,0.00,,,0.00,0,Wunderground v.1.15,2013-04-22 03:53:00,
2013-04-22 05:59:00,54.9,49.5,29.92,NNE,18,5.0,6.0,82,0.00,,,0.00,0,Wunderground v.1.15,2013-04-22 03:59:00,
2013-04-22 06:01:00,55.1,49.7,29.92,NNE,17,3.0,5.0,82,0.00,,,0.00,0,Wunderground v.1.15,2013-04-22 04:01:00,
2013-04-22 06:02:00,55.1,49.7,29.92,NNE,17,3.0,6.0,82,0.00,,,0.00,0,Wunderground v.1.15,2013-04-22 04:02:00,
2013-04-22 06:03:00,55.1,49.7,29.92,NNE,17,4.0,6.0,82,0.00,,,0.00,0,Wunderground v.1.15,2013-04-22 04:03:00,
2013-04-22 06:08:00,55.4,50.0,29.92,NNE,17,2.0,6.0,82,0.00,,,0.00,0,Wunderground v.1.15,2013-04-22 04:08:00,
2013-04-22 06:13:00,55.4,50.0,29.92,NNE,16,2.0,6.0,82,0.00,,,0.00,0,Wunderground v.1.15,2013-04-22 04:13:00,
2013-04-22 06:18:00,55.2,49.5,29.91,NNE,14,2.0,6.0,81,0.00,,,0.00,0,Wunderground v.1.15,2013-04-22 04:18:00,
2013-04-22 06:23:00,55.2,49.5,29.91,NNE,14,3.0,5.0,81,0.00,,,0.00,0,Wunderground v.1.15,2013-04-22 04:23:00,
2013-04-22 06:28:00,55.5,50.1,29.91,NNE,14,3.0,5.0,82,0.00,,,0.00,0,Wunderground v.1.15,2013-04-22 04:28:00,
2013-04-22 06:34:00,55.7,50.0,29.91,NNE,14,1.0,5.0,81,0.00,,,0.00,0,Wunderground v.1.15,2013-04-22 04:34:00,
2013-04-22 06:39:00,55.7,50.0,29.91,NNE,14,1.0,5.0,81,0.00,,,0.00,0,Wunderground v.1.15,2013-04-22 04:39:00,
2013-04-22 06:44:00,55.7,50.0,29.92,NNE,14,1.0,4.0,81,0.00,,,0.00,0,Wunderground v.1.15,2013-04-22 04:44:00,
2013-04-22 06:49:00,55.7,50.0,29.92,NNE,14,2.0,4.0,81,0.00,,,0.00,0,Wunderground v.1.15,2013-04-22 04:49:00,
2013-04-22 06:55:00,55.8,50.1,29.92,NNE,14,1.0,3.0,81,0.00,,,0.00,0,Wunderground v.1.15,2013-04-22 04:55:00,
2013-04-22 07:00:00,55.8,50.1,29.91,NNE,14,2.0,2.0,81,0.00,,,0.00,0,Wunderground v.1.15,2013-04-22 05:00:00,
2013-04-22 07:05:00,56.0,50.3,29.91,NNE,14,1.0,3.0,81,0.00,,,0.00,0,Wunderground v.1.15,2013-04-22 05:05:00,
2013-04-22 07:10:00,56.1,50.3,29.91,NNE,14,3.0,3.0,81,0.00,,,0.00,0,Wunderground v.1.15,2013-04-22 05:10:00,
2013-04-22 07:15:00,56.3,50.5,29.92,NNE,14,1.0,3.0,81,0.00,,,0.00,0,Wunderground v.1.15,2013-04-22 05:15:00,
2013-04-22 07:20:00,56.3,50.5,29.92,NNE,14,4.0,4.0,81,0.00,,,0.00,0,Wunderground v.1.15,2013-04-22 05:20:00,
2013-04-22 07:25:00,56.4,50.6,29.92,NNE,16,2.0,5.0,81,0.00,,,0.00,0,Wunderground v.1.15,2013-04-22 05:25:00,
2013-04-22 07:30:00,56.6,50.5,29.92,NNE,16,2.0,3.0,80,0.00,,,0.00,0,Wunderground v.1.15,2013-04-22 05:30:00,
2013-04-22 07:35:00,56.6,50.5,29.92,NNE,16,2.0,3.0,80,0.00,,,0.00,5,Wunderground v.1.15,2013-04-22 05:35:00,
2013-04-22 07:40:00,56.7,50.6,29.92,NNE,16,2.0,3.0,80,0.00,,,0.00,5,Wunderground v.1.15,2013-04-22 05:40:00,
2013-04-22 07:45:00,56.7,50.3,29.91,NNE,16,3.0,5.0,79,0.00,,,0.00,9,Wunderground v.1.15,2013-04-22 05:45:00,
2013-04-22 07:50:00,56.7,50.3,29.91,NNE,16,2.0,2.0,79,0.00,,,0.00,9,Wunderground v.1.15,2013-04-22 05:50:00,
2013-04-22 07:56:00,56.8,50.4,29.91,NNE,16,1.0,2.0,79,0.00,,,0.00,11,Wunderground v.1.15,2013-04-22 05:56:00,
2013-04-22 08:01:00,56.8,50.4,29.91,NNE,14,1.0,2.0,79,0.00,,,0.00,23,Wunderground v.1.15,2013-04-22 06:01:00,
2013-04-22 08:06:00,57.1,50.3,29.91,NNE,14,1.0,3.0,78,0.00,,,0.00,28,Wunderground v.1.15,2013-04-22 06:06:00,
2013-04-22 08:11:00,57.3,50.8,29.91,NNE,14,3.0,4.0,79,0.00,,,0.00,30,Wunderground v.1.15,2013-04-22 06:11:00,
2013-04-22 08:16:00,57.4,50.9,29.91,NNE,14,0.0,4.0,79,0.00,,,0.00,33,Wunderground v.1.15,2013-04-22 06:16:00,
2013-04-22 08:21:00,57.4,50.9,29.91,NNE,14,0.0,1.0,79,0.00,,,0.00,33,Wunderground v.1.15,2013-04-22 06:21:00,
2013-04-22 08:26:00,57.4,50.6,29.91,NNE,14,0.0,2.0,78,0.00,,,0.00,39,Wunderground v.1.15,2013-04-22 06:26:00,
2013-04-22 08:31:00,57.4,50.6,29.92,NNE,14,0.0,0.0,78,0.00,,,0.00,39,Wunderground v.1.15,2013-04-22 06:31:00,
2013-04-22 08:37:00,57.6,50.8,29.92,NNE,14,0.0,0.0,78,0.00,,,0.00,55,Wunderground v.1.15,2013-04-22 06:37:00,
2013-04-22 08:42:00,57.6,51.1,29.92,NNE,14,0.0,0.0,79,0.00,,,0.00,53,Wunderground v.1.15,2013-04-22 06:42:00,
2013-04-22 08:47:00,57.6,51.1,29.92,NNE,14,0.0,0.0,79,0.00,,,0.00,86,Wunderground v.1.15,2013-04-22 06:47:00,
2013-04-22 08:52:00,57.6,51.1,29.92,NNE,14,0.0,0.0,79,0.00,,,0.00,102,Wunderground v.1.15,2013-04-22 06:52:00,
2013-04-22 08:57:00,57.7,51.2,29.92,NNE,14,0.0,0.0,79,0.00,,,0.00,81,Wunderground v.1.15,2013-04-22 06:57:00,
2013-04-22 09:02:00,57.9,51.4,29.92,NNE,14,0.0,0.0,79,0.00,,,0.00,67,Wunderground v.1.15,2013-04-22 07:02:00,
2013-04-22 09:07:00,58.1,52.0,29.92,NNE,14,0.0,0.0,80,0.00,,,0.00,74,Wunderground v.1.15,2013-04-22 07:07:00,
2013-04-22 09:12:00,58.2,52.1,29.92,NNE,14,0.0,0.0,80,0.00,,,0.00,60,Wunderground v.1.15,2013-04-22 07:12:00,
2013-04-22 09:17:00,58.2,52.1,29.93,NNE,14,0.0,0.0,80,0.00,,,0.00,74,Wunderground v.1.15,2013-04-22 07:17:00,
2013-04-22 09:22:00,58.2,52.1,29.93,NNE,14,0.0,0.0,80,0.00,,,0.00,76,Wunderground v.1.15,2013-04-22 07:22:00,
2013-04-22 09:27:00,58.4,52.3,29.93,NNE,14,0.0,0.0,80,0.00,,,0.00,121,Wunderground v.1.15,2013-04-22 07:27:00,
2013-04-22 09:33:00,58.4,52.3,29.92,NNE,14,0.0,0.0,80,0.00,,,0.00,130,Wunderground v.1.15,2013-04-22 07:33:00,
2013-04-22 09:38:00,58.4,51.9,29.92,NNE,14,0.0,0.0,79,0.00,,,0.00,104,Wunderground v.1.15,2013-04-22 07:38:00,
2013-04-22 09:43:00,58.5,52.0,29.92,NNE,14,0.0,0.0,79,0.00,,,0.00,118,Wunderground v.1.15,2013-04-22 07:43:00,
2013-04-22 09:48:00,58.5,52.0,29.92,NNE,14,0.0,0.0,79,0.00,,,0.00,88,Wunderground v.1.15,2013-04-22 07:48:00,
2013-04-22 09:53:00,58.5,52.0,29.92,NNE,14,0.0,0.0,79,0.00,,,0.00,84,Wunderground v.1.15,2013-04-22 07:53:00,
2013-04-22 09:58:00,58.7,52.2,29.92,NNE,14,0.0,0.0,79,0.00,,,0.00,102,Wunderground v.1.15,2013-04-22 07:58:00,
2013-04-22 10:03:00,58.7,52.2,29.92,NNE,14,0.0,0.0,79,0.00,,,0.00,111,Wunderground v.1.15,2013-04-22 08:03:00,
2013-04-22 10:08:00,58.7,52.5,29.92,NNE,14,0.0,0.0,80,0.00,,,0.00,42,Wunderground v.1.15,2013-04-22 08:08:00,
2013-04-22 10:13:00,58.5,52.0,29.92,NNE,14,0.0,0.0,79,0.00,,,0.00,121,Wunderground v.1.15,2013-04-22 08:13:00,
2013-04-22 10:18:00,58.7,52.2,29.93,NNE,14,0.0,0.0,79,0.00,,,0.00,146,Wunderground v.1.15,2013-04-22 08:18:00,
2013-04-22 10:23:00,58.7,52.2,29.93,NNE,14,0.0,0.0,79,0.00,,,0.00,134,Wunderground v.1.15,2013-04-22 08:23:00,
2013-04-22 10:28:00,58.7,52.2,29.93,NNE,14,0.0,0.0,79,0.00,,,0.00,141,Wunderground v.1.15,2013-04-22 08:28:00,
2013-04-22 10:33:00,58.8,52.3,29.93,NNE,14,0.0,0.0,79,0.00,,,0.00,174,Wunderground v.1.15,2013-04-22 08:33:00,
2013-04-22 10:39:00,59.0,52.1,29.93,NNE,14,0.0,0.0,78,0.00,,,0.00,208,Wunderground v.1.15,2013-04-22 08:39:00,
2013-04-22 10:44:00,59.1,52.2,29.93,NNE,14,0.0,0.0,78,0.00,,,0.00,179,Wunderground v.1.15,2013-04-22 08:44:00,
2013-04-22 10:49:00,59.1,52.2,29.93,NNE,14,0.0,0.0,78,0.00,,,0.00,201,Wunderground v.1.15,2013-04-22 08:49:00,
2013-04-22 10:54:00,59.1,51.9,29.93,NNE,18,0.0,0.0,77,0.00,,,0.00,223,Wunderground v.1.15,2013-04-22 08:54:00,
2013-04-22 10:59:00,59.3,52.1,29.93,NNE,18,0.0,0.0,77,0.00,,,0.00,199,Wunderground v.1.15,2013-04-22 08:59:00,
2013-04-22 11:04:00,59.4,51.8,29.93,NNE,18,0.0,0.0,76,0.00,,,0.00,236,Wunderground v.1.15,2013-04-22 09:04:00,
2013-04-22 11:09:00,59.6,52.0,29.93,NNE,18,0.0,0.0,76,0.00,,,0.00,230,Wunderground v.1.15,2013-04-22 09:09:00,
2013-04-22 11:14:00,59.7,51.8,29.93,NNE,18,0.0,0.0,75,0.00,,,0.00,282,Wunderground v.1.15,2013-04-22 09:14:00,
2013-04-22 11:20:00,59.9,52.0,29.93,NE,37,2.0,5.0,75,0.00,,,0.00,273,Wunderground v.1.15,2013-04-22 09:20:00,
2013-04-22 11:25:00,60.0,51.7,29.93,NE,37,0.0,2.0,74,0.00,,,0.00,255,Wunderground v.1.15,2013-04-22 09:25:00,
2013-04-22 11:30:00,60.2,51.9,29.93,NE,37,0.0,1.0,74,0.00,,,0.00,269,Wunderground v.1.15,2013-04-22 09:30:00,
2013-04-22 11:35:00,60.3,51.6,29.93,NE,37,0.0,1.0,73,0.00,,,0.00,296,Wunderground v.1.15,2013-04-22 09:35:00,
2013-04-22 11:40:00,60.6,51.9,29.93,NE,37,1.0,1.0,73,0.00,,,0.00,296,Wunderground v.1.15,2013-04-22 09:40:00,
2013-04-22 11:45:00,60.8,52.1,29.93,NE,37,0.0,2.0,73,0.00,,,0.00,283,Wunderground v.1.15,2013-04-22 09:45:00,
2013-04-22 11:50:00,61.3,52.2,29.93,NE,37,0.0,0.0,72,0.00,,,0.00,257,Wunderground v.1.15,2013-04-22 09:50:00,
2013-04-22 11:55:00,61.3,51.8,29.93,NE,37,0.0,0.0,71,0.00,,,0.00,236,Wunderground v.1.15,2013-04-22 09:55:00,
2013-04-22 12:00:00,61.4,51.5,29.93,NE,37,1.0,2.0,70,0.00,,,0.00,216,Wunderground v.1.15,2013-04-22 10:00:00,
2013-04-22 12:05:00,61.0,51.5,29.93,SE,138,6.0,7.0,71,0.00,,,0.00,201,Wunderground v.1.15,2013-04-22 10:05:00,
2013-04-22 12:10:00,60.3,51.6,29.93,SE,141,6.0,8.0,73,0.00,,,0.00,243,Wunderground v.1.15,2013-04-22 10:10:00,
2013-04-22 12:15:00,60.2,51.5,29.94,SE,141,2.0,8.0,73,0.00,,,0.00,259,Wunderground v.1.15,2013-04-22 10:15:00,
2013-04-22 12:20:00,60.3,51.6,29.94,SE,141,2.0,4.0,73,0.00,,,0.00,252,Wunderground v.1.15,2013-04-22 10:20:00,
2013-04-22 12:26:00,60.3,51.6,29.94,SE,144,2.0,7.0,73,0.00,,,0.00,255,Wunderground v.1.15,2013-04-22 10:26:00,
2013-04-22 12:28:00,60.3,51.6,29.94,SE,144,5.0,7.0,73,0.00,,,0.00,267,Wunderground v.1.15,2013-04-22 10:28:00,
2013-04-22 14:27:00,61.4,44.6,29.93,SSE,158,6.0,7.0,54,0.00,,,0.00,528,Wunderground v.1.15,2013-04-22 12:27:00,
2013-04-22 14:32:00,61.6,46.2,29.93,SSE,147,1.0,7.0,57,0.00,,,0.00,370,Wunderground v.1.15,2013-04-22 12:32:00,
2013-04-22 14:37:00,61.6,47.1,29.93,SSE,152,4.0,11.0,59,0.00,,,0.00,370,Wunderground v.1.15,2013-04-22 12:37:00,
2013-04-22 14:42:00,61.7,47.7,29.93,SE,134,1.0,6.0,60,0.00,,,0.00,331,Wunderground v.1.15,2013-04-22 12:42:00,
2013-04-22 14:47:00,61.3,46.4,29.93,SSE,151,2.0,10.0,58,0.00,,,0.00,387,Wunderground v.1.15,2013-04-22 12:47:00,
2013-04-22 14:52:00,61.6,48.4,29.93,SSE,155,2.0,11.0,62,0.00,,,0.00,570,Wunderground v.1.15,2013-04-22 12:52:00,
2013-04-22 14:58:00,62.2,49.4,29.93,SE,145,8.0,11.0,63,0.00,,,0.00,373,Wunderground v.1.15,2013-04-22 12:58:00,
2013-04-22 15:03:00,61.7,49.4,29.92,SSE,150,5.0,6.0,64,0.00,,,0.00,415,Wunderground v.1.15,2013-04-22 13:03:00,
2013-04-22 15:08:00,61.7,49.4,29.92,South,174,2.0,7.0,64,0.00,,,0.00,317,Wunderground v.1.15,2013-04-22 13:08:00,
2013-04-22 15:13:00,61.9,49.6,29.92,East,99,3.0,8.0,64,0.00,,,0.00,371,Wunderground v.1.15,2013-04-22 13:13:00,
2013-04-22 15:18:00,61.6,49.3,29.92,SSE,161,3.0,10.0,64,0.00,,,0.00,410,Wunderground v.1.15,2013-04-22 13:18:00,
2013-04-22 15:23:00,61.7,50.6,29.92,SSE,155,2.0,9.0,67,0.00,,,0.00,424,Wunderground v.1.15,2013-04-22 13:23:00,
2013-04-22 15:28:00,61.6,50.9,29.92,SE,128,0.0,9.0,68,0.00,,,0.00,304,Wunderground v.1.15,2013-04-22 13:28:00,
2013-04-22 15:33:00,61.4,51.1,29.92,ESE,123,6.0,11.0,69,0.00,,,0.00,250,Wunderground v.1.15,2013-04-22 13:33:00,
2013-04-22 15:38:00,61.1,50.8,29.92,SE,144,8.0,11.0,69,0.00,,,0.00,253,Wunderground v.1.15,2013-04-22 13:38:00,
2013-04-22 15:44:00,60.6,50.4,29.92,SSE,151,5.0,10.0,69,0.00,,,0.00,206,Wunderground v.1.15,2013-04-22 13:44:00,
2013-04-22 15:49:00,60.6,50.8,29.92,SSE,154,5.0,10.0,70,0.00,,,0.00,202,Wunderground v.1.15,2013-04-22 13:49:00,
2013-04-22 15:54:00,60.6,51.5,29.92,SSE,154,5.0,8.0,72,0.00,,,0.00,260,Wunderground v.1.15,2013-04-22 13:54:00,
2013-04-22 15:59:00,60.3,51.6,29.92,SSE,150,3.0,8.0,73,0.00,,,0.00,246,Wunderground v.1.15,2013-04-22 13:59:00,
2013-04-22 16:04:00,60.6,52.3,29.92,SSE,167,6.0,8.0,74,0.00,,,0.00,192,Wunderground v.1.15,2013-04-22 14:04:00,
2013-04-22 16:09:00,60.5,52.2,29.92,SSE,160,6.0,9.0,74,0.00,,,0.00,194,Wunderground v.1.15,2013-04-22 14:09:00,
2013-04-22 16:15:00,60.5,52.2,29.91,SSE,165,2.0,5.0,74,0.00,,,0.00,197,Wunderground v.1.15,2013-04-22 14:15:00,
2013-04-22 16:20:00,60.3,52.0,29.91,SSE,161,5.0,5.0,74,0.00,,,0.00,206,Wunderground v.1.15,2013-04-22 14:20:00,
2013-04-22 16:25:00,60.2,51.9,29.91,SSE,148,2.0,7.0,74,0.00,,,0.00,176,Wunderground v.1.15,2013-04-22 14:25:00,
2013-04-22 16:30:00,60.2,52.2,29.91,SSE,148,1.0,3.0,75,0.00,,,0.00,232,Wunderground v.1.15,2013-04-22 14:30:00,
2013-04-22 16:35:00,60.5,52.5,29.91,SE,143,6.0,8.0,75,0.00,,,0.00,246,Wunderground v.1.15,2013-04-22 14:35:00,
2013-04-22 16:40:00,60.2,52.2,29.91,SSE,147,5.0,6.0,75,0.00,,,0.00,194,Wunderground v.1.15,2013-04-22 14:40:00,
2013-04-22 16:45:00,60.0,52.4,29.90,SSE,150,2.0,6.0,76,0.00,,,0.00,178,Wunderground v.1.15,2013-04-22 14:45:00,
2013-04-22 16:50:00,60.2,52.6,29.90,SE,145,6.0,6.0,76,0.00,,,0.00,155,Wunderground v.1.15,2013-04-22 14:50:00,
2013-04-22 16:55:00,60.0,52.4,29.90,SSE,154,7.0,11.0,76,0.00,,,0.00,178,Wunderground v.1.15,2013-04-22 14:55:00,
2013-04-22 17:00:00,59.9,52.0,29.90,SSW,198,5.0,5.0,75,0.00,,,0.00,183,Wunderground v.1.15,2013-04-22 15:00:00,
2013-04-22 17:05:00,60.0,52.4,29.90,SSE,151,6.0,8.0,76,0.00,,,0.00,201,Wunderground v.1.15,2013-04-22 15:05:00,
2013-04-22 17:10:00,59.9,52.3,29.90,SE,145,1.0,6.0,76,0.00,,,0.00,195,Wunderground v.1.15,2013-04-22 15:10:00,
2013-04-22 17:15:00,59.9,52.3,29.90,SSE,152,1.0,8.0,76,0.00,,,0.00,151,Wunderground v.1.15,2013-04-22 15:15:00,
2013-04-22 17:20:00,59.9,52.3,29.90,SSE,160,6.0,6.0,76,0.00,,,0.00,151,Wunderground v.1.15,2013-04-22 15:20:00,
2013-04-22 17:26:00,59.7,52.1,29.90,SSE,161,3.0,8.0,76,0.00,,,0.00,91,Wunderground v.1.15,2013-04-22 15:26:00,
2013-04-22 17:31:00,59.6,52.0,29.90,ESE,121,5.0,8.0,76,0.00,,,0.00,107,Wunderground v.1.15,2013-04-22 15:31:00,
2013-04-22 17:36:00,59.6,52.0,29.90,SE,140,6.0,8.0,76,0.00,,,0.00,106,Wunderground v.1.15,2013-04-22 15:36:00,
2013-04-22 17:41:00,59.4,51.5,29.90,ENE,78,1.0,5.0,75,0.00,,,0.00,121,Wunderground v.1.15,2013-04-22 15:41:00,
2013-04-22 17:46:00,59.4,50.7,29.89,ESE,123,7.0,8.0,73,0.00,,,0.00,150,Wunderground v.1.15,2013-04-22 15:46:00,
2013-04-22 17:51:00,59.6,50.9,29.89,ESE,120,5.0,7.0,73,0.00,,,0.00,164,Wunderground v.1.15,2013-04-22 15:51:00,
2013-04-22 17:56:00,59.7,51.0,29.89,SE,124,8.0,10.0,73,0.00,,,0.00,183,Wunderground v.1.15,2013-04-22 15:56:00,
2013-04-22 18:01:00,59.6,50.6,29.89,SE,136,6.0,6.0,72,0.00,,,0.00,179,Wunderground v.1.15,2013-04-22 16:01:00,
2013-04-22 18:06:00,59.6,50.6,29.89,SE,140,9.0,9.0,72,0.00,,,0.00,143,Wunderground v.1.15,2013-04-22 16:06:00,
2013-04-22 18:11:00,59.6,50.6,29.89,SE,138,2.0,5.0,72,0.00,,,0.00,125,Wunderground v.1.15,2013-04-22 16:11:00,
2013-04-22 18:16:00,59.7,51.0,29.89,SE,140,4.0,6.0,73,0.00,,,0.00,123,Wunderground v.1.15,2013-04-22 16:16:00,
2013-04-22 18:22:00,59.7,50.7,29.89,SE,144,5.0,6.0,72,0.00,,,0.00,116,Wunderground v.1.15,2013-04-22 16:22:00,
2013-04-22 18:27:00,59.7,50.7,29.89,SE,144,5.0,7.0,72,0.00,,,0.00,151,Wunderground v.1.15,2013-04-22 16:27:00,
2013-04-22 18:32:00,60.0,51.3,29.89,SE,144,2.0,3.0,73,0.00,,,0.00,165,Wunderground v.1.15,2013-04-22 16:32:00,
2013-04-22 18:37:00,60.2,51.1,29.89,SE,144,1.0,3.0,72,0.00,,,0.00,150,Wunderground v.1.15,2013-04-22 16:37:00,
2013-04-22 18:42:00,60.3,51.2,29.89,SE,144,0.0,2.0,72,0.00,,,0.00,151,Wunderground v.1.15,2013-04-22 16:42:00,
2013-04-22 18:47:00,60.5,50.7,29.89,SE,144,3.0,5.0,70,0.00,,,0.00,174,Wunderground v.1.15,2013-04-22 16:47:00,
2013-04-22 18:52:00,60.5,50.3,29.89,SE,144,2.0,2.0,69,0.00,,,0.00,197,Wunderground v.1.15,2013-04-22 16:52:00,
2013-04-22 18:57:00,60.6,50.4,29.89,SE,144,1.0,3.0,69,0.00,,,0.00,172,Wunderground v.1.15,2013-04-22 16:57:00,
2013-04-22 19:02:00,60.8,50.2,29.88,SE,144,0.0,2.0,68,0.00,,,0.00,148,Wunderground v.1.15,2013-04-22 17:02:00,
2013-04-22 19:08:00,60.8,49.8,29.88,SE,144,5.0,7.0,67,0.00,,,0.00,127,Wunderground v.1.15,2013-04-22 17:08:00,
2013-04-22 19:13:00,60.2,50.0,29.88,SSE,157,8.0,8.0,69,0.00,,,0.00,114,Wunderground v.1.15,2013-04-22 17:13:00,
2013-04-22 19:18:00,59.7,49.9,29.88,SE,145,4.0,9.0,70,0.00,,,0.00,93,Wunderground v.1.15,2013-04-22 17:18:00,
2013-04-22 19:23:00,59.6,49.8,29.88,SSE,160,2.0,7.0,70,0.00,,,0.00,63,Wunderground v.1.15,2013-04-22 17:23:00,
2013-04-22 19:28:00,59.3,49.1,29.88,SE,140,6.0,8.0,69,0.00,,,0.00,49,Wunderground v.1.15,2013-04-22 17:28:00,
2013-04-22 19:34:00,59.3,49.5,29.89,SSE,152,5.0,8.0,70,0.00,,,0.00,56,Wunderground v.1.15,2013-04-22 17:34:00,
2013-04-22 19:39:00,59.3,49.1,29.89,SSE,157,5.0,8.0,69,0.00,,,0.00,48,Wunderground v.1.15,2013-04-22 17:39:00,
2013-04-22 19:44:00,59.0,49.6,29.89,SSE,150,5.0,7.0,71,0.00,,,0.00,62,Wunderground v.1.15,2013-04-22 17:44:00,
2013-04-22 19:49:00,59.0,49.6,29.89,SSE,154,3.0,7.0,71,0.00,,,0.00,48,Wunderground v.1.15,2013-04-22 17:49:00,
2013-04-22 19:54:00,58.8,49.8,29.89,SSE,161,2.0,6.0,72,0.00,,,0.00,37,Wunderground v.1.15,2013-04-22 17:54:00,
2013-04-22 20:00:00,58.7,50.1,29.89,SE,145,3.0,4.0,73,0.00,,,0.00,28,Wunderground v.1.15,2013-04-22 18:00:00,
2013-04-22 20:05:00,58.7,50.1,29.89,SSE,147,4.0,6.0,73,0.00,,,0.00,21,Wunderground v.1.15,2013-04-22 18:05:00,
2013-04-22 20:10:00,58.5,49.9,29.89,SSE,150,2.0,3.0,73,0.00,,,0.00,16,Wunderground v.1.15,2013-04-22 18:10:00,
2013-04-22 20:15:00,58.7,50.4,29.89,SSE,150,2.0,4.0,74,0.00,,,0.00,14,Wunderground v.1.15,2013-04-22 18:15:00,
2013-04-22 20:20:00,58.7,50.4,29.89,SSE,150,2.0,2.0,74,0.00,,,0.00,11,Wunderground v.1.15,2013-04-22 18:20:00,
2013-04-22 20:25:00,58.7,50.4,29.89,SSE,150,2.0,3.0,74,0.00,,,0.00,9,Wunderground v.1.15,2013-04-22 18:25:00,
2013-04-22 20:30:00,58.7,50.8,29.90,SSE,152,2.0,2.0,75,0.00,,,0.00,7,Wunderground v.1.15,2013-04-22 18:30:00,
2013-04-22 20:35:00,58.8,50.9,29.90,SSE,152,0.0,3.0,75,0.00,,,0.00,5,Wunderground v.1.15,2013-04-22 18:35:00,
2013-04-22 20:40:00,58.8,50.5,29.90,SSE,152,2.0,2.0,74,0.00,,,0.00,5,Wunderground v.1.15,2013-04-22 18:40:00,
2013-04-22 20:45:00,58.7,50.4,29.90,SSE,152,1.0,3.0,74,0.00,,,0.00,0,Wunderground v.1.15,2013-04-22 18:45:00,
2013-04-22 20:50:00,58.7,50.4,29.90,SSE,152,0.0,1.0,74,0.00,,,0.00,0,Wunderground v.1.15,2013-04-22 18:50:00,
2013-04-22 20:55:00,58.8,50.5,29.90,SSE,152,1.0,2.0,74,0.00,,,0.00,0,Wunderground v.1.15,2013-04-22 18:55:00,
2013-04-22 21:00:00,58.8,50.5,29.91,SSE,152,1.0,1.0,74,0.00,,,0.00,0,Wunderground v.1.15,2013-04-22 19:00:00,
2013-04-22 21:05:00,58.8,50.2,29.91,SSE,152,1.0,3.0,73,0.00,,,0.00,0,Wunderground v.1.15,2013-04-22 19:05:00,
2013-04-22 21:11:00,58.8,50.5,29.91,SSE,152,0.0,1.0,74,0.00,,,0.00,0,Wunderground v.1.15,2013-04-22 19:11:00,
2013-04-22 21:16:00,58.8,50.2,29.91,SSE,152,0.0,3.0,73,0.00,,,0.00,0,Wunderground v.1.15,2013-04-22 19:16:00,
2013-04-22 21:21:00,58.8,50.2,29.91,SSE,152,0.0,1.0,73,0.00,,,0.00,0,Wunderground v.1.15,2013-04-22 19:21:00,
2013-04-22 21:26:00,58.8,50.2,29.91,SSE,152,0.0,1.0,73,0.00,,,0.00,0,Wunderground v.1.15,2013-04-22 19:26:00,
2013-04-22 21:31:00,58.8,50.2,29.92,SSE,152,0.0,1.0,73,0.00,,,0.00,0,Wunderground v.1.15,2013-04-22 19:31:00,
2013-04-22 21:36:00,58.8,50.5,29.92,SSE,152,1.0,3.0,74,0.00,,,0.00,0,Wunderground v.1.15,2013-04-22 19:36:00,
2013-04-22 21:41:00,58.7,50.4,29.92,SSE,154,1.0,5.0,74,0.00,,,0.00,0,Wunderground v.1.15,2013-04-22 19:41:00,
2013-04-22 21:46:00,58.7,50.4,29.93,SSE,150,2.0,5.0,74,0.00,,,0.00,0,Wunderground v.1.15,2013-04-22 19:46:00,
2013-04-22 21:52:00,58.8,50.9,29.93,SSE,148,6.0,6.0,75,0.00,,,0.00,0,Wunderground v.1.15,2013-04-22 19:52:00,
2013-04-22 21:57:00,58.7,51.2,29.93,ESE,110,6.0,7.0,76,0.00,,,0.00,0,Wunderground v.1.15,2013-04-22 19:57:00,
2013-04-22 22:02:00,58.4,51.2,29.93,SE,133,6.0,7.0,77,0.00,,,0.00,0,Wunderground v.1.15,2013-04-22 20:02:00,
2013-04-22 22:07:00,58.1,51.6,29.93,SE,137,3.0,7.0,79,0.00,,,0.00,0,Wunderground v.1.15,2013-04-22 20:07:00,
2013-04-22 22:12:00,57.9,51.8,29.93,SE,130,4.0,6.0,80,0.00,,,0.00,0,Wunderground v.1.15,2013-04-22 20:12:00,
2013-04-22 22:17:00,57.6,51.5,29.94,SE,130,1.0,6.0,80,0.00,,,0.00,0,Wunderground v.1.15,2013-04-22 20:17:00,
2013-04-22 22:22:00,57.4,51.6,29.94,SE,130,0.0,2.0,81,0.00,,,0.00,0,Wunderground v.1.15,2013-04-22 20:22:00,
2013-04-22 22:27:00,57.4,51.6,29.94,SE,130,1.0,2.0,81,0.00,,,0.00,0,Wunderground v.1.15,2013-04-22 20:27:00,
2013-04-22 22:32:00,57.3,51.5,29.94,SE,130,1.0,3.0,81,0.00,,,0.00,0,Wunderground v.1.15,2013-04-22 20:32:00,
2013-04-22 22:37:00,57.1,51.3,29.94,NNW,339,1.0,4.0,81,0.00,,,0.00,0,Wunderground v.1.15,2013-04-22 20:37:00,
2013-04-22 22:42:00,57.0,51.2,29.94,NNW,339,2.0,3.0,81,0.00,,,0.00,0,Wunderground v.1.15,2013-04-22 20:42:00,
2013-04-22 22:47:00,57.0,51.2,29.95,NNW,340,2.0,3.0,81,0.00,,,0.00,0,Wunderground v.1.15,2013-04-22 20:47:00,
2013-04-22 22:52:00,57.0,51.6,29.95,NNW,344,1.0,2.0,82,0.00,,,0.00,0,Wunderground v.1.15,2013-04-22 20:52:00,
2013-04-22 22:58:00,56.8,51.4,29.95,NNW,344,0.0,2.0,82,0.00,,,0.00,0,Wunderground v.1.15,2013-04-22 20:58:00,
2013-04-22 23:03:00,56.8,51.4,29.95,NNW,344,0.0,1.0,82,0.00,,,0.00,0,Wunderground v.1.15,2013-04-22 21:03:00,
2013-04-22 23:08:00,56.8,51.7,29.95,NNW,344,0.0,1.0,83,0.00,,,0.00,0,Wunderground v.1.15,2013-04-22 21:08:00,
2013-04-22 23:13:00,56.7,51.6,29.95,NNW,344,0.0,0.0,83,0.00,,,0.00,0,Wunderground v.1.15,2013-04-22 21:13:00,
2013-04-22 23:18:00,56.7,51.3,29.95,NNW,344,0.0,0.0,82,0.00,,,0.00,0,Wunderground v.1.15,2013-04-22 21:18:00,
2013-04-22 23:23:00,56.6,51.2,29.95,NNW,344,0.0,0.0,82,0.00,,,0.00,0,Wunderground v.1.15,2013-04-22 21:23:00,
2013-04-22 23:28:00,56.6,51.2,29.95,NNW,344,0.0,0.0,82,0.00,,,0.00,0,Wunderground v.1.15,2013-04-22 21:28:00,
2013-04-22 23:33:00,56.6,51.2,29.96,NNW,344,0.0,0.0,82,0.00,,,0.00,0,Wunderground v.1.15,2013-04-22 21:33:00,
2013-04-22 23:38:00,56.6,51.5,29.96,NNW,344,0.0,0.0,83,0.00,,,0.00,0,Wunderground v.1.15,2013-04-22 21:38:00,
2013-04-22 23:43:00,56.7,51.6,29.96,NNW,344,0.0,0.0,83,0.00,,,0.00,0,Wunderground v.1.15,2013-04-22 21:43:00,
2013-04-22 23:48:00,56.8,51.7,29.96,NNW,344,0.0,0.0,83,0.00,,,0.00,0,Wunderground v.1.15,2013-04-22 21:48:00,
2013-04-22 23:53:00,57.0,51.9,29.96,NNW,344,0.0,0.0,83,0.00,,,0.00,0,Wunderground v.1.15,2013-04-22 21:53:00,
2013-04-22 23:58:00,57.1,52.0,29.96,NNW,344,0.0,0.0,83,0.00,,,0.00,0,Wunderground v.1.15,2013-04-22 21:58:00,